OIBV

Lavan Airport

Airport
ICAO code
OIBV
IATA Code
LVP
Summary
ICAO Region
MID
ICAO Territory
Location

Lavan, Hormozgan Province

Serving
Lavan Island
Elevation
76 ft
Coordinates
26° 48' 39" N , 53° 21' 11" E
KCC
Metar
Observation
OIBV 070300Z 14004KT 6000 FEW030 23/19 Q1015
Station
LAVAN ISLAND
Date/Time
2022-12-07 03:00:00
Wind direction
140°
Wind speed
04 kts
Lowest cloud amount
few clouds
Temperature
23°C
Dew point
19°C
Humidity
78%
QNH
1015 hPa
Weather condition
n/a

Airport located on Lavan Island in the Persian Gulf.

Climatology

Warm Desert climate (Köppen climate classification BWh).

Runways

Designator Length Width Surface Rops
11/29 2077 45 ASP No/No

Airport map

Aerial View

SKYbrary Partners:

Safety knowledge contributed by: